createdAt,value
2018-05-23T00:00:49.162Z,2.77
2018-05-23T00:03:22.521Z,3.03
2018-05-23T00:05:55.148Z,3.20
2018-05-23T00:08:27.743Z,2.93
2018-05-23T00:11:00.408Z,3.00
2018-05-23T00:13:33.010Z,3.23
2018-05-23T00:16:05.627Z,3.43
2018-05-23T00:18:38.239Z,2.80
2018-05-23T00:21:10.864Z,3.20
2018-05-23T00:23:43.454Z,2.93
2018-05-23T00:26:16.091Z,3.20
2018-05-23T00:28:48.692Z,3.43
2018-05-23T00:31:21.326Z,3.20
2018-05-23T00:33:53.920Z,3.53
2018-05-23T00:36:26.591Z,3.10
2018-05-23T00:38:59.199Z,3.50
2018-05-23T00:41:31.843Z,3.00
2018-05-23T00:44:05.216Z,3.67
2018-05-23T00:46:37.835Z,3.17
2018-05-23T00:49:10.437Z,2.90
2018-05-23T00:51:43.071Z,3.57
2018-05-23T00:54:15.681Z,3.63
2018-05-23T00:56:48.325Z,3.50
2018-05-23T00:59:20.921Z,3.50
2018-05-23T01:01:53.557Z,3.40
2018-05-23T01:04:26.150Z,3.13
2018-05-23T01:06:58.780Z,3.97
2018-05-23T01:09:31.410Z,3.40
2018-05-23T01:12:04.081Z,3.60
2018-05-23T01:14:36.688Z,3.93
2018-05-23T01:17:09.312Z,4.00
2018-05-23T01:19:41.947Z,3.07
2018-05-23T01:22:14.591Z,4.00
2018-05-23T01:24:47.196Z,3.63
2018-05-23T01:27:19.828Z,3.30
2018-05-23T01:29:52.435Z,3.87
2018-05-23T01:32:25.060Z,3.80
2018-05-23T01:34:57.676Z,3.87
2018-05-23T01:37:31.085Z,4.10
2018-05-23T01:40:03.692Z,3.50
2018-05-23T01:42:37.111Z,3.30
2018-05-23T01:45:09.713Z,3.77
2018-05-23T01:47:42.349Z,4.43
2018-05-23T01:50:14.951Z,4.03
2018-05-23T01:52:47.587Z,3.90
2018-05-23T01:55:20.190Z,3.90
2018-05-23T01:57:52.832Z,3.90
2018-05-23T02:00:26.196Z,4.03
2018-05-23T02:02:58.818Z,4.23
2018-05-23T02:05:31.415Z,4.40
2018-05-23T02:08:04.061Z,4.10
2018-05-23T02:10:36.671Z,4.27
2018-05-23T02:13:09.312Z,4.13
2018-05-23T02:15:42.701Z,4.07
2018-05-23T02:18:15.339Z,4.10
2018-05-23T02:20:47.935Z,4.10
2018-05-23T02:23:20.602Z,4.33
2018-05-23T02:25:53.203Z,4.43
2018-05-23T02:28:25.834Z,4.07
2018-05-23T02:30:58.451Z,4.07
2018-05-23T02:33:31.101Z,4.77
2018-05-23T02:36:03.721Z,4.30
2018-05-23T02:38:36.367Z,3.87
2018-05-23T02:41:08.968Z,3.90
2018-05-23T02:43:41.617Z,4.50
2018-05-23T02:46:20.054Z,4.00
2018-05-23T02:48:52.709Z,4.50
2018-05-23T02:51:25.318Z,4.30
2018-05-23T02:53:57.947Z,4.63
2018-05-23T02:56:30.553Z,4.60
2018-05-23T02:59:03.204Z,4.43
2018-05-23T03:01:36.590Z,4.60
2018-05-23T03:04:09.216Z,4.60
2018-05-23T03:06:42.613Z,4.57
2018-05-23T03:09:15.244Z,4.00
2018-05-23T03:11:47.861Z,4.23
2018-05-23T03:14:20.496Z,4.33
2018-05-23T03:16:53.868Z,5.50
2018-05-23T03:19:26.488Z,4.57
2018-05-23T03:21:59.134Z,4.47
2018-05-23T03:24:31.771Z,4.87
2018-05-23T03:27:05.148Z,4.60
2018-05-23T03:29:37.813Z,4.70
2018-05-23T03:32:10.419Z,4.97
2018-05-23T03:34:43.061Z,5.00
2018-05-23T03:37:16.433Z,4.70
2018-05-23T03:39:49.076Z,4.60
2018-05-23T03:42:21.678Z,4.73
2018-05-23T03:44:54.328Z,4.60
2018-05-23T03:47:26.955Z,4.10
2018-05-23T03:50:06.221Z,4.83
2018-05-23T03:52:38.836Z,4.63
2018-05-23T03:55:11.487Z,4.50
2018-05-23T03:57:44.104Z,5.00
2018-05-23T04:00:28.638Z,5.20
2018-05-23T04:03:13.727Z,6.10
2018-05-23T04:05:58.958Z,4.77
2018-05-23T04:08:31.555Z,4.87
2018-05-23T04:11:04.199Z,4.47
2018-05-23T04:13:37.584Z,4.40
2018-05-23T04:16:10.253Z,4.50
2018-05-23T04:18:42.862Z,4.50
2018-05-23T04:21:15.509Z,4.80
2018-05-23T04:23:48.883Z,4.57
2018-05-23T04:26:22.296Z,4.13
2018-05-23T04:28:55.681Z,5.93
2018-05-23T04:31:28.309Z,4.83
2018-05-23T04:34:00.904Z,4.80
2018-05-23T04:36:33.519Z,4.70
2018-05-23T04:39:06.111Z,4.50
2018-05-23T04:41:38.765Z,3.97
2018-05-23T04:44:12.136Z,5.03
2018-05-23T04:46:44.754Z,4.53
2018-05-23T04:49:17.414Z,5.07
2018-05-23T04:51:50.064Z,7.03
2018-05-23T04:54:22.668Z,4.33
2018-05-23T04:56:55.294Z,4.17
2018-05-23T04:59:27.909Z,4.30
2018-05-23T05:02:00.535Z,4.20
2018-05-23T05:04:33.127Z,4.53
2018-05-23T05:07:05.830Z,4.87
2018-05-23T05:09:38.376Z,4.97
2018-05-23T05:12:11.019Z,3.97
2018-05-23T05:14:44.393Z,3.87
2018-05-23T05:17:17.786Z,3.90
2018-05-23T05:19:50.396Z,3.10
2018-05-23T05:22:23.800Z,3.10
2018-05-23T05:24:56.454Z,3.50
2018-05-23T05:27:29.126Z,3.37
2018-05-23T05:30:01.729Z,3.67
2018-05-23T05:32:34.343Z,3.50
2018-05-23T05:35:06.952Z,3.07
2018-05-23T05:37:39.596Z,3.50
2018-05-23T05:40:12.182Z,3.60
2018-05-23T05:42:44.851Z,3.27
2018-05-23T05:45:17.456Z,3.50
2018-05-23T05:47:50.093Z,4.00
2018-05-23T05:50:22.754Z,3.33
2018-05-23T05:52:55.422Z,3.10
2018-05-23T05:55:28.029Z,3.40
2018-05-23T05:58:00.680Z,3.70
2018-05-23T06:00:33.276Z,4.10
2018-05-23T06:03:05.928Z,3.70
2018-05-23T06:05:38.536Z,3.20
2018-05-23T06:08:11.172Z,3.03
2018-05-23T06:10:43.794Z,3.67
2018-05-23T06:13:16.437Z,3.73
2018-05-23T06:15:49.041Z,2.80
2018-05-23T06:18:22.437Z,3.67
2018-05-23T06:20:55.804Z,2.93
2018-05-23T06:23:28.470Z,4.77
2018-05-23T06:26:01.862Z,3.10
2018-05-23T06:28:34.516Z,3.47
2018-05-23T06:31:07.118Z,4.03
2018-05-23T06:33:39.794Z,3.70
2018-05-23T06:36:12.420Z,3.20
2018-05-23T06:38:45.840Z,3.07
2018-05-23T06:41:19.204Z,3.40
2018-05-23T06:43:51.844Z,3.27
2018-05-23T06:46:24.434Z,3.63
2018-05-23T06:48:57.054Z,3.30
2018-05-23T06:51:29.687Z,3.80
2018-05-23T06:54:02.336Z,3.37
2018-05-23T06:56:34.930Z,4.30
2018-05-23T06:59:07.576Z,3.50
2018-05-23T07:01:40.233Z,3.07
2018-05-23T07:04:12.849Z,3.40
2018-05-23T07:06:45.446Z,3.10
2018-05-23T07:09:18.084Z,3.27
2018-05-23T07:11:50.688Z,2.93
2018-05-23T07:14:23.319Z,3.20
2018-05-23T07:16:56.034Z,2.63
2018-05-23T07:19:28.729Z,2.43
2018-05-23T07:22:01.333Z,2.57
2018-05-23T07:24:34.011Z,2.30
2018-05-23T07:27:06.630Z,2.40
2018-05-23T07:29:39.279Z,2.20
2018-05-23T07:32:11.894Z,2.20
2018-05-23T07:34:44.522Z,2.30
2018-05-23T07:37:17.124Z,2.20
2018-05-23T07:39:49.788Z,2.40
2018-05-23T07:42:22.395Z,1.77
2018-05-23T07:44:55.041Z,2.10
2018-05-23T07:47:27.652Z,2.00
2018-05-23T07:50:00.304Z,1.60
2018-05-23T07:52:32.900Z,2.03
2018-05-23T07:55:06.304Z,2.10
2018-05-23T07:57:39.677Z,1.87
2018-05-23T08:00:12.327Z,2.10
2018-05-23T08:02:44.927Z,1.93
2018-05-23T08:05:17.572Z,2.17
2018-05-23T08:07:50.172Z,1.97
2018-05-23T08:10:22.843Z,2.17
2018-05-23T08:12:55.453Z,2.20
2018-05-23T08:15:28.085Z,1.93
2018-05-23T08:18:00.712Z,2.07
2018-05-23T08:20:33.368Z,1.80
2018-05-23T08:23:05.962Z,1.97
2018-05-23T08:25:38.599Z,2.20
2018-05-23T08:28:11.208Z,2.03
2018-05-23T08:30:43.838Z,2.00
2018-05-23T08:33:16.437Z,2.30
2018-05-23T08:35:49.085Z,2.00
2018-05-23T08:38:21.690Z,2.40
2018-05-23T08:40:55.080Z,1.90
2018-05-23T08:43:27.695Z,2.40
2018-05-23T08:46:01.228Z,2.07
2018-05-23T08:48:33.800Z,2.17
2018-05-23T08:51:06.421Z,2.43
2018-05-23T08:53:39.024Z,1.90
2018-05-23T08:56:11.672Z,1.90
2018-05-23T08:58:45.100Z,2.00
2018-05-23T09:01:17.748Z,1.77
2018-05-23T09:03:50.356Z,2.00
2018-05-23T09:06:23.758Z,2.00
2018-05-23T09:08:56.365Z,2.00
2018-05-23T09:11:29.773Z,1.73
2018-05-23T09:14:03.143Z,2.07
2018-05-23T09:16:35.764Z,1.97
2018-05-23T09:19:09.141Z,2.03
2018-05-23T09:21:41.780Z,2.00
2018-05-23T09:24:14.390Z,1.90
2018-05-23T09:26:47.060Z,1.60
2018-05-23T09:29:20.425Z,1.70
2018-05-23T09:31:53.065Z,1.60
2018-05-23T09:34:25.658Z,1.97
2018-05-23T09:36:58.305Z,1.70
2018-05-23T09:39:30.933Z,1.60
2018-05-23T09:42:04.349Z,1.80
2018-05-23T09:44:36.951Z,2.10
2018-05-23T09:47:09.606Z,1.60
2018-05-23T09:49:42.212Z,2.03
2018-05-23T09:52:15.591Z,1.70
2018-05-23T09:54:48.186Z,1.60
2018-05-23T09:57:20.828Z,1.90
2018-05-23T09:59:53.436Z,1.50
2018-05-23T10:02:26.076Z,1.53
2018-05-23T10:04:58.679Z,1.60
2018-05-23T10:07:31.353Z,1.37
2018-05-23T10:10:03.951Z,1.60
2018-05-23T10:12:37.370Z,1.60
2018-05-23T10:15:10.749Z,1.40
2018-05-23T10:17:43.400Z,1.50
2018-05-23T10:20:16.014Z,1.77
2018-05-23T10:22:48.655Z,1.40
2018-05-23T10:25:21.265Z,1.57
2018-05-23T10:27:53.883Z,1.47
2018-05-23T10:30:26.480Z,1.40
2018-05-23T10:32:59.123Z,1.67
2018-05-23T10:35:32.500Z,1.20
2018-05-23T10:38:05.130Z,1.37
2018-05-23T10:40:37.759Z,2.00
2018-05-23T10:43:10.384Z,1.00
2018-05-23T10:45:42.991Z,1.40
2018-05-23T10:48:16.396Z,1.13
2018-05-23T10:50:48.987Z,1.60
2018-05-23T10:53:21.619Z,1.10
2018-05-23T10:55:54.214Z,1.33
2018-05-23T10:58:26.860Z,1.37
2018-05-23T11:00:59.470Z,1.20
2018-05-23T11:03:32.095Z,1.33
2018-05-23T11:06:04.713Z,1.50
2018-05-23T11:08:37.392Z,1.30
2018-05-23T11:11:10.000Z,1.60
2018-05-23T11:13:42.646Z,1.20
2018-05-23T11:16:15.277Z,1.50
2018-05-23T11:18:47.949Z,1.40
2018-05-23T11:21:20.549Z,1.30
2018-05-23T11:23:53.209Z,1.20
2018-05-23T11:26:25.809Z,1.57
2018-05-23T11:28:58.447Z,1.10
2018-05-23T11:31:31.069Z,1.30
2018-05-23T11:34:04.460Z,1.40
2018-05-23T11:36:37.072Z,1.40
2018-05-23T11:39:09.704Z,1.30
2018-05-23T11:41:42.310Z,1.20
2018-05-23T11:44:14.930Z,1.37
2018-05-23T11:46:48.294Z,1.10
2018-05-23T11:49:20.936Z,1.50
2018-05-23T11:51:53.527Z,1.03
2018-05-23T11:54:26.917Z,1.20
2018-05-23T11:56:59.524Z,1.10
2018-05-23T11:59:32.913Z,1.30
2018-05-23T12:02:06.314Z,1.30
2018-05-23T12:04:38.968Z,1.15
2018-05-23T12:07:11.589Z,1.17
2018-05-23T12:09:44.218Z,1.23
2018-05-23T12:12:16.824Z,1.20
2018-05-23T12:14:50.248Z,1.30
2018-05-23T12:17:22.843Z,1.12
2018-05-23T12:19:55.491Z,1.33
2018-05-23T12:22:28.079Z,1.27
2018-05-23T12:25:00.736Z,1.40
2018-05-23T12:27:33.352Z,1.10
2018-05-23T12:30:06.024Z,1.10
2018-05-23T12:32:38.632Z,1.12
2018-05-23T12:35:11.273Z,1.40
2018-05-23T12:37:43.874Z,1.37
2018-05-23T12:40:16.513Z,1.15
2018-05-23T12:42:49.129Z,1.10
2018-05-23T12:45:22.532Z,1.02
2018-05-23T12:47:55.146Z,0.98
2018-05-23T12:50:27.805Z,0.90
2018-05-23T12:53:00.406Z,1.00
2018-05-23T12:55:33.044Z,1.20
2018-05-23T12:58:05.660Z,1.15
2018-05-23T13:00:38.315Z,1.02
2018-05-23T13:03:10.928Z,1.35
2018-05-23T13:05:43.580Z,1.10
2018-05-23T13:08:16.181Z,1.12
2018-05-23T13:10:48.805Z,1.25
2018-05-23T13:13:21.418Z,1.20
2018-05-23T13:15:54.098Z,1.33
2018-05-23T13:18:26.710Z,1.50
2018-05-23T13:20:59.348Z,1.10
2018-05-23T13:23:31.991Z,1.02
2018-05-23T13:26:04.632Z,1.40
2018-05-23T13:28:37.236Z,0.93
2018-05-23T13:31:09.901Z,0.93
2018-05-23T13:33:42.520Z,1.15
2018-05-23T13:36:15.173Z,0.90
2018-05-23T13:38:47.806Z,1.05
2018-05-23T13:41:20.465Z,1.00
2018-05-23T13:43:53.839Z,0.90
2018-05-23T13:46:26.479Z,0.90
2018-05-23T13:48:59.088Z,1.15
2018-05-23T13:51:31.757Z,0.88
2018-05-23T13:54:04.408Z,0.80
2018-05-23T13:56:37.096Z,0.90
2018-05-23T13:59:09.723Z,1.20
2018-05-23T14:01:42.422Z,1.50
2018-05-23T14:04:15.021Z,1.00
2018-05-23T14:06:47.668Z,1.20
2018-05-23T14:09:20.262Z,1.30
2018-05-23T14:11:52.898Z,1.80
2018-05-23T14:14:25.500Z,0.97
2018-05-23T14:16:58.140Z,1.03
2018-05-23T14:19:30.843Z,1.10
2018-05-23T14:22:03.480Z,0.93
2018-05-23T14:24:36.078Z,1.20
2018-05-23T14:27:08.811Z,1.10
2018-05-23T14:29:41.347Z,1.07
2018-05-23T14:32:13.996Z,0.98
2018-05-23T14:34:46.594Z,1.17
2018-05-23T14:37:20.010Z,1.10
2018-05-23T14:39:53.380Z,1.30
2018-05-23T14:42:26.008Z,1.80
2018-05-23T14:44:59.389Z,1.37
2018-05-23T14:47:32.006Z,1.20
2018-05-23T14:50:04.619Z,1.20
2018-05-23T14:52:37.277Z,1.30
2018-05-23T14:55:09.884Z,1.27
2018-05-23T14:57:43.318Z,1.50
2018-05-23T15:00:15.923Z,1.00
2018-05-23T15:02:48.551Z,1.33
2018-05-23T15:05:21.156Z,1.37
2018-05-23T15:07:53.824Z,1.40
2018-05-23T15:10:26.431Z,1.20
2018-05-23T15:12:59.063Z,1.30
2018-05-23T15:15:31.668Z,1.17
2018-05-23T15:18:04.307Z,0.90
2018-05-23T15:20:36.909Z,1.23
2018-05-23T15:23:09.542Z,1.20
2018-05-23T15:25:42.140Z,1.30
2018-05-23T15:28:14.765Z,1.00
2018-05-23T15:30:47.369Z,1.57
2018-05-23T15:33:20.017Z,1.40
2018-05-23T15:35:52.606Z,0.90
2018-05-23T15:38:25.230Z,1.20
2018-05-23T15:40:57.832Z,1.13
2018-05-23T15:43:30.497Z,1.40
2018-05-23T15:46:03.090Z,1.07
2018-05-23T15:48:35.730Z,1.10
2018-05-23T15:51:09.183Z,1.40
2018-05-23T15:53:41.762Z,1.40
2018-05-23T15:56:14.376Z,1.03
2018-05-23T15:58:47.036Z,1.43
2018-05-23T16:01:19.648Z,1.33
2018-05-23T16:03:52.302Z,1.23
2018-05-23T16:06:25.681Z,1.50
2018-05-23T16:08:58.323Z,1.30
2018-05-23T16:11:30.937Z,1.17
2018-05-23T16:14:03.573Z,1.30
2018-05-23T16:16:36.182Z,1.20
2018-05-23T16:19:08.853Z,1.07
2018-05-23T16:21:41.472Z,1.17
2018-05-23T16:24:14.127Z,1.30
2018-05-23T16:26:46.728Z,1.27
2018-05-23T16:29:19.388Z,1.97
2018-05-23T16:31:51.999Z,1.87
2018-05-23T16:34:24.649Z,1.87
2018-05-23T16:36:57.257Z,2.17
2018-05-23T16:39:29.901Z,1.60
2018-05-23T16:42:02.529Z,1.60
2018-05-23T16:44:35.151Z,1.70
2018-05-23T16:47:07.803Z,2.10
2018-05-23T16:49:40.461Z,1.73
2018-05-23T16:52:13.863Z,1.57
2018-05-23T16:54:46.474Z,1.60
2018-05-23T16:57:19.073Z,1.80
2018-05-23T16:59:51.702Z,1.70
2018-05-23T17:02:24.304Z,2.00
2018-05-23T17:04:56.945Z,1.60
2018-05-23T17:07:29.548Z,1.70
2018-05-23T17:10:02.172Z,1.60
2018-05-23T17:12:34.803Z,1.67
2018-05-23T17:15:07.504Z,1.53
2018-05-23T17:17:40.117Z,1.57
2018-05-23T17:20:12.763Z,1.60
2018-05-23T17:22:45.371Z,1.70
2018-05-23T17:25:17.999Z,1.70
2018-05-23T17:27:50.604Z,2.00
2018-05-23T17:30:23.250Z,2.73
2018-05-23T17:32:56.615Z,3.07
2018-05-23T17:35:29.295Z,1.73
2018-05-23T17:38:01.897Z,1.80
2018-05-23T17:40:34.538Z,1.80
2018-05-23T17:43:07.920Z,1.80
2018-05-23T17:45:40.624Z,1.97
2018-05-23T17:48:13.204Z,1.93
2018-05-23T17:50:45.828Z,1.50
2018-05-23T17:53:19.204Z,1.93
2018-05-23T17:55:51.849Z,1.30
2018-05-23T17:58:24.460Z,1.80
2018-05-23T18:00:57.125Z,1.67
2018-05-23T18:03:29.743Z,1.70
2018-05-23T18:06:02.436Z,2.10
2018-05-23T18:08:35.028Z,1.80
2018-05-23T18:11:08.669Z,2.37
2018-05-23T18:13:41.284Z,1.90
2018-05-23T18:16:14.692Z,2.07
2018-05-23T18:18:47.317Z,1.87
2018-05-23T18:21:19.964Z,2.63
2018-05-23T18:23:52.566Z,1.87
2018-05-23T18:26:25.196Z,1.60
2018-05-23T18:28:57.796Z,2.10
2018-05-23T18:31:30.816Z,1.80
2018-05-23T18:34:03.451Z,1.90
2018-05-23T18:36:36.080Z,1.83
2018-05-23T18:39:08.688Z,1.90
2018-05-23T18:41:41.332Z,2.00
2018-05-23T18:44:13.927Z,1.60
2018-05-23T18:46:46.572Z,1.50
2018-05-23T18:49:19.245Z,1.90
2018-05-23T18:51:51.859Z,1.50
2018-05-23T18:54:24.498Z,2.27
2018-05-23T18:56:57.144Z,1.57
2018-05-23T18:59:29.814Z,1.87
2018-05-23T19:02:02.459Z,2.00
2018-05-23T19:04:35.057Z,1.97
2018-05-23T19:07:07.704Z,2.20
2018-05-23T19:09:40.340Z,2.00
2018-05-23T19:12:13.765Z,2.00
2018-05-23T19:14:48.318Z,1.80
2018-05-23T19:17:20.959Z,2.07
2018-05-23T19:19:54.477Z,1.77
2018-05-23T19:22:27.040Z,1.70
2018-05-23T19:24:59.653Z,2.10
2018-05-23T19:27:32.303Z,1.97
2018-05-23T19:30:04.916Z,2.07
2018-05-23T19:32:38.323Z,2.27
2018-05-23T19:35:10.925Z,1.93
2018-05-23T19:37:43.631Z,2.00
2018-05-23T19:40:16.246Z,2.20
2018-05-23T19:42:48.889Z,2.10
2018-05-23T19:45:21.487Z,2.60
2018-05-23T19:47:54.139Z,2.27
2018-05-23T19:50:26.766Z,2.00
2018-05-23T19:53:00.247Z,2.30
2018-05-23T19:55:32.847Z,2.10
2018-05-23T19:58:05.491Z,1.97
2018-05-23T20:00:38.864Z,1.90
2018-05-23T20:03:11.541Z,2.10
2018-05-23T20:05:44.997Z,1.90
2018-05-23T20:08:17.699Z,2.70
2018-05-23T20:10:50.338Z,2.00
2018-05-23T20:13:22.976Z,1.80
2018-05-23T20:15:55.575Z,1.80
2018-05-23T20:18:29.001Z,1.90
2018-05-23T20:21:12.523Z,2.07
2018-05-23T20:23:46.240Z,1.90
2018-05-23T20:26:18.857Z,2.20
2018-05-23T20:28:51.500Z,1.80
2018-05-23T20:31:24.107Z,2.03
2018-05-23T20:33:56.744Z,1.97
2018-05-23T20:36:29.363Z,1.97
2018-05-23T20:39:02.096Z,2.37
2018-05-23T20:41:35.482Z,1.93
2018-05-23T20:44:08.132Z,2.10
2018-05-23T20:46:40.747Z,1.90
2018-05-23T20:49:13.401Z,1.90
2018-05-23T20:51:46.025Z,1.80
2018-05-23T20:54:18.766Z,2.17
2018-05-23T20:56:51.392Z,2.10
2018-05-23T20:59:24.040Z,1.87
2018-05-23T21:01:56.644Z,1.70
2018-05-23T21:04:30.029Z,1.90
2018-05-23T21:07:02.623Z,1.70
2018-05-23T21:09:35.276Z,1.90
2018-05-23T21:12:10.543Z,2.53
2018-05-23T21:14:43.983Z,2.13
2018-05-23T21:17:16.592Z,2.10
2018-05-23T21:19:49.991Z,1.80
2018-05-23T21:22:23.104Z,2.00
2018-05-23T21:24:56.527Z,2.60
2018-05-23T21:27:29.900Z,1.93
2018-05-23T21:30:02.595Z,2.17
2018-05-23T21:32:35.210Z,2.00
2018-05-23T21:35:08.531Z,1.93
2018-05-23T21:37:41.148Z,2.13
2018-05-23T21:40:13.771Z,2.10
2018-05-23T21:42:46.371Z,1.90
2018-05-23T21:45:19.016Z,2.00
2018-05-23T21:47:53.552Z,2.20
2018-05-23T21:50:26.195Z,2.87
2018-05-23T21:52:58.797Z,1.90
2018-05-23T21:55:32.197Z,2.10
2018-05-23T21:58:04.811Z,2.40
2018-05-23T22:00:37.585Z,2.50
2018-05-23T22:03:11.590Z,2.23
2018-05-23T22:05:44.238Z,1.80
2018-05-23T22:08:16.851Z,1.83
2018-05-23T22:10:49.508Z,2.00
2018-05-23T22:13:22.111Z,1.90
2018-05-23T22:15:54.910Z,2.10
2018-05-23T22:18:27.543Z,1.90
2018-05-23T22:21:02.461Z,2.17
2018-05-23T22:23:35.141Z,2.00
2018-05-23T22:26:11.484Z,2.27
2018-05-23T22:28:44.985Z,2.10
2018-05-23T22:31:17.624Z,1.90
2018-05-23T22:33:50.228Z,1.80
2018-05-23T22:36:24.045Z,2.20
2018-05-23T22:38:56.654Z,2.30
2018-05-23T22:41:29.304Z,1.73
2018-05-23T22:44:01.918Z,2.27
2018-05-23T22:46:34.544Z,2.53
2018-05-23T22:49:07.156Z,2.20
2018-05-23T22:51:39.894Z,2.13
2018-05-23T22:54:12.508Z,2.30
2018-05-23T22:56:45.165Z,2.37
2018-05-23T22:59:17.762Z,2.27
2018-05-23T23:01:50.408Z,2.37
2018-05-23T23:04:23.008Z,2.10
2018-05-23T23:06:56.432Z,2.27
2018-05-23T23:09:29.035Z,2.70
2018-05-23T23:12:01.680Z,2.23
2018-05-23T23:14:34.282Z,2.20
2018-05-23T23:17:06.920Z,2.30
2018-05-23T23:19:39.523Z,2.60
2018-05-23T23:25:13.720Z,2.33
2018-05-23T23:27:46.393Z,2.40
2018-05-23T23:30:19.004Z,2.50
2018-05-23T23:32:51.635Z,2.30
2018-05-23T23:35:24.223Z,2.20
2018-05-23T23:37:57.627Z,2.10
2018-05-23T23:40:31.297Z,2.70
2018-05-23T23:43:03.973Z,2.30
2018-05-23T23:45:37.365Z,2.70
2018-05-23T23:48:10.001Z,2.30
2018-05-23T23:50:42.640Z,2.70
2018-05-23T23:53:16.039Z,2.27
2018-05-23T23:55:49.445Z,2.40
2018-05-23T23:58:23.840Z,2.70
